sensor_id;sensor_type;location;lat;lon;timestamp;P1;durP1;ratioP1;P2;durP2;ratioP2
51836;SDS011;38941;53.254;6.600;2023-05-07T00:01:46;24.60;;;13.98;;
51836;SDS011;38941;53.254;6.600;2023-05-07T00:03:47;20.25;;;11.80;;
51836;SDS011;38941;53.254;6.600;2023-05-07T00:05:48;26.48;;;13.32;;
51836;SDS011;38941;53.254;6.600;2023-05-07T00:07:50;20.70;;;11.60;;
51836;SDS011;38941;53.254;6.600;2023-05-07T00:09:52;17.65;;;11.02;;
51836;SDS011;38941;53.254;6.600;2023-05-07T00:11:54;19.98;;;12.55;;
51836;SDS011;38941;53.254;6.600;2023-05-07T00:13:55;25.95;;;13.13;;
51836;SDS011;38941;53.254;6.600;2023-05-07T00:15:57;20.25;;;12.15;;
51836;SDS011;38941;53.254;6.600;2023-05-07T00:17:59;23.13;;;12.77;;
51836;SDS011;38941;53.254;6.600;2023-05-07T00:20:00;25.10;;;12.43;;
51836;SDS011;38941;53.254;6.600;2023-05-07T00:22:01;20.58;;;11.68;;
51836;SDS011;38941;53.254;6.600;2023-05-07T00:24:02;21.00;;;12.45;;
51836;SDS011;38941;53.254;6.600;2023-05-07T00:26:03;21.30;;;12.50;;
51836;SDS011;38941;53.254;6.600;2023-05-07T00:28:04;25.50;;;12.85;;
51836;SDS011;38941;53.254;6.600;2023-05-07T00:30:06;22.65;;;11.85;;
51836;SDS011;38941;53.254;6.600;2023-05-07T00:32:07;20.48;;;12.60;;
51836;SDS011;38941;53.254;6.600;2023-05-07T00:34:09;22.08;;;12.95;;
51836;SDS011;38941;53.254;6.600;2023-05-07T00:36:09;21.08;;;12.68;;
51836;SDS011;38941;53.254;6.600;2023-05-07T00:38:10;21.20;;;12.48;;
51836;SDS011;38941;53.254;6.600;2023-05-07T00:40:11;19.77;;;11.45;;
51836;SDS011;38941;53.254;6.600;2023-05-07T00:42:12;23.20;;;11.98;;
51836;SDS011;38941;53.254;6.600;2023-05-07T00:44:14;21.55;;;12.18;;
51836;SDS011;38941;53.254;6.600;2023-05-07T00:46:14;22.92;;;12.63;;
51836;SDS011;38941;53.254;6.600;2023-05-07T00:48:15;21.23;;;12.23;;
51836;SDS011;38941;53.254;6.600;2023-05-07T00:50:16;20.23;;;12.55;;
51836;SDS011;38941;53.254;6.600;2023-05-07T00:52:19;22.95;;;13.00;;
51836;SDS011;38941;53.254;6.600;2023-05-07T00:54:21;22.40;;;12.50;;
51836;SDS011;38941;53.254;6.600;2023-05-07T00:56:23;24.73;;;13.38;;
51836;SDS011;38941;53.254;6.600;2023-05-07T00:58:24;24.92;;;13.85;;
51836;SDS011;38941;53.254;6.600;2023-05-07T01:00:25;25.00;;;13.27;;
51836;SDS011;38941;53.254;6.600;2023-05-07T01:02:27;23.42;;;12.93;;
51836;SDS011;38941;53.254;6.600;2023-05-07T01:04:27;23.73;;;13.52;;
51836;SDS011;38941;53.254;6.600;2023-05-07T01:06:28;24.38;;;14.50;;
51836;SDS011;38941;53.254;6.600;2023-05-07T01:08:31;22.75;;;14.38;;
51836;SDS011;38941;53.254;6.600;2023-05-07T01:10:32;23.40;;;13.00;;
51836;SDS011;38941;53.254;6.600;2023-05-07T01:12:34;27.63;;;15.20;;
51836;SDS011;38941;53.254;6.600;2023-05-07T01:14:36;24.17;;;14.05;;
51836;SDS011;38941;53.254;6.600;2023-05-07T01:16:37;27.15;;;15.07;;
51836;SDS011;38941;53.254;6.600;2023-05-07T01:18:38;27.35;;;14.70;;
51836;SDS011;38941;53.254;6.600;2023-05-07T01:20:38;25.55;;;14.43;;
51836;SDS011;38941;53.254;6.600;2023-05-07T01:22:39;27.08;;;15.57;;
51836;SDS011;38941;53.254;6.600;2023-05-07T01:24:40;24.25;;;14.73;;
51836;SDS011;38941;53.254;6.600;2023-05-07T01:26:43;26.27;;;14.68;;
51836;SDS011;38941;53.254;6.600;2023-05-07T01:28:45;27.60;;;15.82;;
51836;SDS011;38941;53.254;6.600;2023-05-07T01:30:54;26.17;;;16.33;;
51836;SDS011;38941;53.254;6.600;2023-05-07T01:33:02;28.23;;;15.93;;
51836;SDS011;38941;53.254;6.600;2023-05-07T01:35:09;28.90;;;14.68;;
51836;SDS011;38941;53.254;6.600;2023-05-07T01:37:12;29.35;;;16.75;;
51836;SDS011;38941;53.254;6.600;2023-05-07T01:39:13;29.45;;;16.13;;
51836;SDS011;38941;53.254;6.600;2023-05-07T01:41:16;31.25;;;17.80;;
51836;SDS011;38941;53.254;6.600;2023-05-07T01:43:17;27.13;;;16.35;;
51836;SDS011;38941;53.254;6.600;2023-05-07T01:45:17;32.83;;;18.77;;
51836;SDS011;38941;53.254;6.600;2023-05-07T01:47:18;31.20;;;17.48;;
51836;SDS011;38941;53.254;6.600;2023-05-07T01:49:20;30.08;;;16.13;;
51836;SDS011;38941;53.254;6.600;2023-05-07T01:51:21;27.83;;;16.63;;
51836;SDS011;38941;53.254;6.600;2023-05-07T01:53:22;32.05;;;17.52;;
51836;SDS011;38941;53.254;6.600;2023-05-07T01:55:23;31.05;;;16.95;;
51836;SDS011;38941;53.254;6.600;2023-05-07T01:57:24;30.67;;;17.15;;
51836;SDS011;38941;53.254;6.600;2023-05-07T01:59:25;29.58;;;16.67;;
51836;SDS011;38941;53.254;6.600;2023-05-07T02:01:26;28.45;;;17.25;;
51836;SDS011;38941;53.254;6.600;2023-05-07T02:03:27;29.48;;;16.77;;
51836;SDS011;38941;53.254;6.600;2023-05-07T02:05:27;28.27;;;17.65;;
51836;SDS011;38941;53.254;6.600;2023-05-07T02:07:28;28.65;;;16.63;;
51836;SDS011;38941;53.254;6.600;2023-05-07T02:09:29;33.70;;;18.80;;
51836;SDS011;38941;53.254;6.600;2023-05-07T02:11:31;29.67;;;17.40;;
51836;SDS011;38941;53.254;6.600;2023-05-07T02:13:33;35.33;;;19.10;;
51836;SDS011;38941;53.254;6.600;2023-05-07T02:15:37;33.13;;;19.15;;
51836;SDS011;38941;53.254;6.600;2023-05-07T02:17:57;34.78;;;19.83;;
51836;SDS011;38941;53.254;6.600;2023-05-07T02:20:09;37.08;;;19.02;;
51836;SDS011;38941;53.254;6.600;2023-05-07T02:22:13;32.30;;;18.80;;
51836;SDS011;38941;53.254;6.600;2023-05-07T02:24:15;36.05;;;20.38;;
51836;SDS011;38941;53.254;6.600;2023-05-07T02:26:16;38.22;;;21.30;;
51836;SDS011;38941;53.254;6.600;2023-05-07T02:28:17;38.88;;;22.00;;
51836;SDS011;38941;53.254;6.600;2023-05-07T02:30:18;38.35;;;21.45;;
51836;SDS011;38941;53.254;6.600;2023-05-07T02:32:22;36.95;;;20.70;;
51836;SDS011;38941;53.254;6.600;2023-05-07T02:34:23;37.03;;;20.27;;
51836;SDS011;38941;53.254;6.600;2023-05-07T02:36:24;37.38;;;20.50;;
51836;SDS011;38941;53.254;6.600;2023-05-07T02:38:24;35.33;;;19.88;;
51836;SDS011;38941;53.254;6.600;2023-05-07T02:40:27;33.25;;;18.10;;
51836;SDS011;38941;53.254;6.600;2023-05-07T02:42:29;31.55;;;18.10;;
51836;SDS011;38941;53.254;6.600;2023-05-07T02:44:30;35.75;;;19.48;;
51836;SDS011;38941;53.254;6.600;2023-05-07T02:46:32;32.42;;;17.88;;
51836;SDS011;38941;53.254;6.600;2023-05-07T02:48:33;36.47;;;18.25;;
51836;SDS011;38941;53.254;6.600;2023-05-07T02:50:34;34.20;;;17.92;;
51836;SDS011;38941;53.254;6.600;2023-05-07T02:52:35;28.52;;;16.05;;
51836;SDS011;38941;53.254;6.600;2023-05-07T02:54:36;26.92;;;15.63;;
51836;SDS011;38941;53.254;6.600;2023-05-07T02:56:40;29.08;;;16.27;;
51836;SDS011;38941;53.254;6.600;2023-05-07T02:58:41;32.00;;;16.58;;
51836;SDS011;38941;53.254;6.600;2023-05-07T03:00:42;33.60;;;16.90;;
51836;SDS011;38941;53.254;6.600;2023-05-07T03:02:43;36.53;;;19.60;;
51836;SDS011;38941;53.254;6.600;2023-05-07T03:04:45;38.60;;;20.40;;
51836;SDS011;38941;53.254;6.600;2023-05-07T03:06:46;41.40;;;19.80;;
51836;SDS011;38941;53.254;6.600;2023-05-07T03:08:48;38.08;;;19.35;;
51836;SDS011;38941;53.254;6.600;2023-05-07T03:10:49;41.65;;;19.80;;
51836;SDS011;38941;53.254;6.600;2023-05-07T03:12:50;38.33;;;19.60;;
51836;SDS011;38941;53.254;6.600;2023-05-07T03:14:55;33.30;;;17.35;;
51836;SDS011;38941;53.254;6.600;2023-05-07T03:16:56;31.35;;;17.05;;
51836;SDS011;38941;53.254;6.600;2023-05-07T03:18:57;29.60;;;16.42;;
51836;SDS011;38941;53.254;6.600;2023-05-07T03:20:59;28.42;;;15.05;;
51836;SDS011;38941;53.254;6.600;2023-05-07T03:23:00;30.48;;;15.40;;
51836;SDS011;38941;53.254;6.600;2023-05-07T03:25:00;26.05;;;14.68;;
51836;SDS011;38941;53.254;6.600;2023-05-07T03:27:01;28.10;;;14.70;;
51836;SDS011;38941;53.254;6.600;2023-05-07T03:29:03;28.55;;;16.13;;
51836;SDS011;38941;53.254;6.600;2023-05-07T03:31:04;30.70;;;16.17;;
51836;SDS011;38941;53.254;6.600;2023-05-07T03:33:05;33.08;;;15.52;;
51836;SDS011;38941;53.254;6.600;2023-05-07T03:35:06;29.10;;;15.95;;
51836;SDS011;38941;53.254;6.600;2023-05-07T03:37:07;32.80;;;17.70;;
51836;SDS011;38941;53.254;6.600;2023-05-07T03:39:08;31.55;;;15.73;;
51836;SDS011;38941;53.254;6.600;2023-05-07T03:41:08;30.33;;;15.73;;
51836;SDS011;38941;53.254;6.600;2023-05-07T03:43:15;33.00;;;17.55;;
51836;SDS011;38941;53.254;6.600;2023-05-07T03:45:17;31.27;;;17.05;;
51836;SDS011;38941;53.254;6.600;2023-05-07T03:47:18;34.80;;;17.40;;
51836;SDS011;38941;53.254;6.600;2023-05-07T03:49:18;31.17;;;16.83;;
51836;SDS011;38941;53.254;6.600;2023-05-07T03:51:19;33.67;;;18.10;;
51836;SDS011;38941;53.254;6.600;2023-05-07T03:53:20;39.25;;;20.05;;
51836;SDS011;38941;53.254;6.600;2023-05-07T03:55:21;32.88;;;17.52;;
51836;SDS011;38941;53.254;6.600;2023-05-07T03:57:24;35.78;;;19.20;;
51836;SDS011;38941;53.254;6.600;2023-05-07T03:59:25;36.33;;;18.23;;
51836;SDS011;38941;53.254;6.600;2023-05-07T04:01:25;37.05;;;19.02;;
51836;SDS011;38941;53.254;6.600;2023-05-07T04:03:26;38.25;;;18.92;;
51836;SDS011;38941;53.254;6.600;2023-05-07T04:05:27;32.05;;;17.90;;
51836;SDS011;38941;53.254;6.600;2023-05-07T04:07:28;38.13;;;18.85;;
51836;SDS011;38941;53.254;6.600;2023-05-07T04:09:29;31.83;;;17.23;;
51836;SDS011;38941;53.254;6.600;2023-05-07T04:11:31;32.97;;;17.73;;
51836;SDS011;38941;53.254;6.600;2023-05-07T04:13:32;32.15;;;17.08;;
51836;SDS011;38941;53.254;6.600;2023-05-07T04:15:33;32.65;;;17.73;;
51836;SDS011;38941;53.254;6.600;2023-05-07T04:17:35;37.67;;;17.02;;
51836;SDS011;38941;53.254;6.600;2023-05-07T04:19:36;29.27;;;16.70;;
51836;SDS011;38941;53.254;6.600;2023-05-07T04:21:38;26.83;;;14.80;;
51836;SDS011;38941;53.254;6.600;2023-05-07T04:23:40;30.15;;;16.02;;
51836;SDS011;38941;53.254;6.600;2023-05-07T04:25:46;28.88;;;16.40;;
51836;SDS011;38941;53.254;6.600;2023-05-07T04:27:48;28.52;;;15.90;;
51836;SDS011;38941;53.254;6.600;2023-05-07T04:29:50;31.35;;;16.23;;
51836;SDS011;38941;53.254;6.600;2023-05-07T04:31:51;28.25;;;15.57;;
51836;SDS011;38941;53.254;6.600;2023-05-07T04:33:52;28.25;;;16.10;;
51836;SDS011;38941;53.254;6.600;2023-05-07T04:35:53;30.65;;;16.10;;
51836;SDS011;38941;53.254;6.600;2023-05-07T04:37:54;31.60;;;15.98;;
51836;SDS011;38941;53.254;6.600;2023-05-07T04:39:55;26.65;;;14.55;;
51836;SDS011;38941;53.254;6.600;2023-05-07T04:41:55;25.92;;;15.35;;
51836;SDS011;38941;53.254;6.600;2023-05-07T04:43:56;25.92;;;14.82;;
51836;SDS011;38941;53.254;6.600;2023-05-07T04:45:58;27.05;;;15.85;;
51836;SDS011;38941;53.254;6.600;2023-05-07T04:47:59;26.42;;;14.85;;
51836;SDS011;38941;53.254;6.600;2023-05-07T04:50:01;28.50;;;15.05;;
51836;SDS011;38941;53.254;6.600;2023-05-07T04:52:02;30.00;;;16.60;;
51836;SDS011;38941;53.254;6.600;2023-05-07T04:54:03;30.17;;;14.65;;
51836;SDS011;38941;53.254;6.600;2023-05-07T04:56:04;23.85;;;15.45;;
51836;SDS011;38941;53.254;6.600;2023-05-07T04:58:06;26.30;;;14.98;;
51836;SDS011;38941;53.254;6.600;2023-05-07T05:00:07;28.13;;;15.48;;
51836;SDS011;38941;53.254;6.600;2023-05-07T05:02:11;32.95;;;15.55;;
51836;SDS011;38941;53.254;6.600;2023-05-07T05:04:13;24.95;;;14.25;;
51836;SDS011;38941;53.254;6.600;2023-05-07T05:06:15;25.75;;;15.32;;
51836;SDS011;38941;53.254;6.600;2023-05-07T05:08:16;31.27;;;15.75;;
51836;SDS011;38941;53.254;6.600;2023-05-07T05:10:17;25.52;;;14.60;;
51836;SDS011;38941;53.254;6.600;2023-05-07T05:12:18;26.55;;;15.30;;
51836;SDS011;38941;53.254;6.600;2023-05-07T05:14:19;26.67;;;14.50;;
51836;SDS011;38941;53.254;6.600;2023-05-07T05:16:19;25.75;;;14.65;;
51836;SDS011;38941;53.254;6.600;2023-05-07T05:18:20;25.45;;;14.68;;
51836;SDS011;38941;53.254;6.600;2023-05-07T05:20:21;26.50;;;15.77;;
51836;SDS011;38941;53.254;6.600;2023-05-07T05:22:22;30.38;;;16.15;;
51836;SDS011;38941;53.254;6.600;2023-05-07T05:24:23;29.35;;;16.85;;
51836;SDS011;38941;53.254;6.600;2023-05-07T05:26:23;32.08;;;16.48;;
51836;SDS011;38941;53.254;6.600;2023-05-07T05:28:25;28.83;;;16.95;;
51836;SDS011;38941;53.254;6.600;2023-05-07T05:30:27;30.08;;;17.17;;
51836;SDS011;38941;53.254;6.600;2023-05-07T05:32:28;30.02;;;16.70;;
51836;SDS011;38941;53.254;6.600;2023-05-07T05:34:29;29.95;;;15.70;;
51836;SDS011;38941;53.254;6.600;2023-05-07T05:36:31;24.45;;;14.73;;
51836;SDS011;38941;53.254;6.600;2023-05-07T05:38:32;24.38;;;14.70;;
51836;SDS011;38941;53.254;6.600;2023-05-07T05:40:32;30.10;;;15.02;;
51836;SDS011;38941;53.254;6.600;2023-05-07T05:42:33;26.13;;;15.23;;
51836;SDS011;38941;53.254;6.600;2023-05-07T05:44:34;25.42;;;14.20;;
51836;SDS011;38941;53.254;6.600;2023-05-07T05:46:35;27.38;;;15.65;;
51836;SDS011;38941;53.254;6.600;2023-05-07T05:48:35;34.25;;;17.50;;
51836;SDS011;38941;53.254;6.600;2023-05-07T05:50:37;31.42;;;17.80;;
51836;SDS011;38941;53.254;6.600;2023-05-07T05:52:38;40.00;;;19.92;;
51836;SDS011;38941;53.254;6.600;2023-05-07T05:54:39;35.83;;;20.58;;
51836;SDS011;38941;53.254;6.600;2023-05-07T05:56:41;36.30;;;21.00;;
51836;SDS011;38941;53.254;6.600;2023-05-07T05:58:43;36.20;;;20.58;;
51836;SDS011;38941;53.254;6.600;2023-05-07T06:00:46;33.72;;;19.90;;
51836;SDS011;38941;53.254;6.600;2023-05-07T06:02:48;35.47;;;19.15;;
51836;SDS011;38941;53.254;6.600;2023-05-07T06:04:49;31.50;;;18.30;;
51836;SDS011;38941;53.254;6.600;2023-05-07T06:06:50;27.88;;;15.63;;
51836;SDS011;38941;53.254;6.600;2023-05-07T06:08:50;27.80;;;16.05;;
51836;SDS011;38941;53.254;6.600;2023-05-07T06:10:51;29.05;;;15.82;;
51836;SDS011;38941;53.254;6.600;2023-05-07T06:12:52;24.88;;;15.25;;
51836;SDS011;38941;53.254;6.600;2023-05-07T06:14:53;28.50;;;16.88;;
51836;SDS011;38941;53.254;6.600;2023-05-07T06:16:54;34.13;;;19.58;;
51836;SDS011;38941;53.254;6.600;2023-05-07T06:18:54;39.53;;;19.42;;
51836;SDS011;38941;53.254;6.600;2023-05-07T06:20:55;35.22;;;20.17;;
51836;SDS011;38941;53.254;6.600;2023-05-07T06:22:56;36.95;;;20.85;;
51836;SDS011;38941;53.254;6.600;2023-05-07T06:24:57;34.20;;;19.33;;
51836;SDS011;38941;53.254;6.600;2023-05-07T06:26:58;38.88;;;20.20;;
51836;SDS011;38941;53.254;6.600;2023-05-07T06:28:58;36.95;;;20.38;;
51836;SDS011;38941;53.254;6.600;2023-05-07T06:31:10;35.70;;;20.15;;
51836;SDS011;38941;53.254;6.600;2023-05-07T06:33:15;36.95;;;20.55;;
51836;SDS011;38941;53.254;6.600;2023-05-07T06:35:16;37.75;;;21.05;;
51836;SDS011;38941;53.254;6.600;2023-05-07T06:37:17;38.15;;;21.52;;
51836;SDS011;38941;53.254;6.600;2023-05-07T06:39:21;34.63;;;18.00;;
51836;SDS011;38941;53.254;6.600;2023-05-07T06:41:22;33.75;;;16.80;;
51836;SDS011;38941;53.254;6.600;2023-05-07T06:43:23;26.95;;;16.23;;
51836;SDS011;38941;53.254;6.600;2023-05-07T06:45:24;25.88;;;14.80;;
51836;SDS011;38941;53.254;6.600;2023-05-07T06:47:25;25.63;;;14.18;;
51836;SDS011;38941;53.254;6.600;2023-05-07T06:49:26;25.92;;;14.30;;
51836;SDS011;38941;53.254;6.600;2023-05-07T06:51:26;23.65;;;13.60;;
51836;SDS011;38941;53.254;6.600;2023-05-07T06:53:27;24.70;;;14.45;;
51836;SDS011;38941;53.254;6.600;2023-05-07T06:55:29;22.00;;;12.15;;
51836;SDS011;38941;53.254;6.600;2023-05-07T06:57:30;21.25;;;11.90;;
51836;SDS011;38941;53.254;6.600;2023-05-07T06:59:31;22.77;;;13.13;;
51836;SDS011;38941;53.254;6.600;2023-05-07T07:01:32;28.25;;;14.23;;
51836;SDS011;38941;53.254;6.600;2023-05-07T07:03:33;22.65;;;12.98;;
51836;SDS011;38941;53.254;6.600;2023-05-07T07:05:33;22.73;;;12.98;;
51836;SDS011;38941;53.254;6.600;2023-05-07T07:07:35;23.38;;;13.13;;
51836;SDS011;38941;53.254;6.600;2023-05-07T07:09:36;23.48;;;12.80;;
51836;SDS011;38941;53.254;6.600;2023-05-07T07:11:37;23.60;;;12.70;;
51836;SDS011;38941;53.254;6.600;2023-05-07T07:13:38;23.65;;;12.90;;
51836;SDS011;38941;53.254;6.600;2023-05-07T07:15:40;22.35;;;12.45;;
51836;SDS011;38941;53.254;6.600;2023-05-07T07:17:41;18.63;;;11.18;;
51836;SDS011;38941;53.254;6.600;2023-05-07T07:19:42;22.33;;;13.25;;
51836;SDS011;38941;53.254;6.600;2023-05-07T07:21:43;22.48;;;14.00;;
51836;SDS011;38941;53.254;6.600;2023-05-07T07:23:44;23.33;;;12.82;;
51836;SDS011;38941;53.254;6.600;2023-05-07T07:25:45;22.80;;;12.32;;
51836;SDS011;38941;53.254;6.600;2023-05-07T07:27:46;20.52;;;11.90;;
51836;SDS011;38941;53.254;6.600;2023-05-07T07:29:47;24.17;;;11.98;;
51836;SDS011;38941;53.254;6.600;2023-05-07T07:31:48;22.15;;;12.85;;
51836;SDS011;38941;53.254;6.600;2023-05-07T07:33:52;23.05;;;13.18;;
51836;SDS011;38941;53.254;6.600;2023-05-07T07:35:55;24.98;;;12.23;;
51836;SDS011;38941;53.254;6.600;2023-05-07T07:37:55;22.80;;;13.13;;
51836;SDS011;38941;53.254;6.600;2023-05-07T07:39:56;25.58;;;13.48;;
51836;SDS011;38941;53.254;6.600;2023-05-07T07:41:57;22.92;;;13.40;;
51836;SDS011;38941;53.254;6.600;2023-05-07T07:43:58;21.17;;;12.48;;
51836;SDS011;38941;53.254;6.600;2023-05-07T07:45:59;23.90;;;13.02;;
51836;SDS011;38941;53.254;6.600;2023-05-07T07:48:01;24.33;;;12.43;;
51836;SDS011;38941;53.254;6.600;2023-05-07T07:50:02;24.02;;;13.20;;
51836;SDS011;38941;53.254;6.600;2023-05-07T07:52:02;22.20;;;12.65;;
51836;SDS011;38941;53.254;6.600;2023-05-07T07:54:05;24.65;;;12.93;;
51836;SDS011;38941;53.254;6.600;2023-05-07T07:56:05;25.25;;;12.98;;
51836;SDS011;38941;53.254;6.600;2023-05-07T07:58:06;23.52;;;13.25;;
51836;SDS011;38941;53.254;6.600;2023-05-07T08:00:07;25.42;;;12.68;;
51836;SDS011;38941;53.254;6.600;2023-05-07T08:02:09;24.08;;;13.32;;
51836;SDS011;38941;53.254;6.600;2023-05-07T08:04:12;28.30;;;13.30;;
51836;SDS011;38941;53.254;6.600;2023-05-07T08:06:14;23.90;;;13.35;;
51836;SDS011;38941;53.254;6.600;2023-05-07T08:08:21;21.48;;;12.93;;
51836;SDS011;38941;53.254;6.600;2023-05-07T08:10:22;22.02;;;12.35;;
51836;SDS011;38941;53.254;6.600;2023-05-07T08:12:23;25.20;;;12.80;;
51836;SDS011;38941;53.254;6.600;2023-05-07T08:14:25;21.63;;;13.23;;
51836;SDS011;38941;53.254;6.600;2023-05-07T08:16:28;23.45;;;12.65;;
51836;SDS011;38941;53.254;6.600;2023-05-07T08:18:29;26.55;;;12.75;;
51836;SDS011;38941;53.254;6.600;2023-05-07T08:20:31;22.02;;;12.32;;
51836;SDS011;38941;53.254;6.600;2023-05-07T08:22:36;25.25;;;13.80;;
51836;SDS011;38941;53.254;6.600;2023-05-07T08:24:37;24.15;;;13.32;;
51836;SDS011;38941;53.254;6.600;2023-05-07T08:26:37;22.45;;;12.57;;
51836;SDS011;38941;53.254;6.600;2023-05-07T08:28:39;24.73;;;12.88;;
51836;SDS011;38941;53.254;6.600;2023-05-07T08:30:41;20.30;;;11.68;;
51836;SDS011;38941;53.254;6.600;2023-05-07T08:32:42;25.48;;;12.60;;
51836;SDS011;38941;53.254;6.600;2023-05-07T08:34:43;23.90;;;13.75;;
51836;SDS011;38941;53.254;6.600;2023-05-07T08:36:44;25.27;;;14.63;;
51836;SDS011;38941;53.254;6.600;2023-05-07T08:38:47;21.95;;;12.45;;
51836;SDS011;38941;53.254;6.600;2023-05-07T08:40:47;33.00;;;12.80;;
51836;SDS011;38941;53.254;6.600;2023-05-07T08:42:49;23.17;;;13.30;;
51836;SDS011;38941;53.254;6.600;2023-05-07T08:44:53;23.45;;;12.70;;
51836;SDS011;38941;53.254;6.600;2023-05-07T08:47:00;24.88;;;13.80;;
51836;SDS011;38941;53.254;6.600;2023-05-07T08:49:02;24.77;;;13.13;;
51836;SDS011;38941;53.254;6.600;2023-05-07T08:51:03;24.67;;;13.32;;
51836;SDS011;38941;53.254;6.600;2023-05-07T08:53:05;26.83;;;13.40;;
51836;SDS011;38941;53.254;6.600;2023-05-07T08:55:06;26.60;;;13.50;;
51836;SDS011;38941;53.254;6.600;2023-05-07T08:57:08;20.50;;;12.63;;
51836;SDS011;38941;53.254;6.600;2023-05-07T08:59:09;26.13;;;14.48;;
51836;SDS011;38941;53.254;6.600;2023-05-07T09:01:14;22.42;;;12.52;;
51836;SDS011;38941;53.254;6.600;2023-05-07T09:03:15;25.73;;;13.60;;
51836;SDS011;38941;53.254;6.600;2023-05-07T09:05:16;22.88;;;12.80;;
51836;SDS011;38941;53.254;6.600;2023-05-07T09:07:17;23.58;;;12.68;;
51836;SDS011;38941;53.254;6.600;2023-05-07T09:09:21;23.63;;;13.25;;
51836;SDS011;38941;53.254;6.600;2023-05-07T09:11:23;21.98;;;12.95;;
51836;SDS011;38941;53.254;6.600;2023-05-07T09:13:25;22.83;;;12.48;;
51836;SDS011;38941;53.254;6.600;2023-05-07T09:15:28;22.80;;;13.38;;
51836;SDS011;38941;53.254;6.600;2023-05-07T09:17:29;23.70;;;12.48;;
51836;SDS011;38941;53.254;6.600;2023-05-07T09:19:29;22.45;;;12.98;;
51836;SDS011;38941;53.254;6.600;2023-05-07T09:21:30;21.60;;;12.45;;
51836;SDS011;38941;53.254;6.600;2023-05-07T09:23:31;25.05;;;12.68;;
51836;SDS011;38941;53.254;6.600;2023-05-07T09:25:33;23.85;;;12.75;;
51836;SDS011;38941;53.254;6.600;2023-05-07T09:27:35;23.63;;;13.52;;
51836;SDS011;38941;53.254;6.600;2023-05-07T09:29:36;24.02;;;12.57;;
51836;SDS011;38941;53.254;6.600;2023-05-07T09:31:37;23.48;;;13.25;;
51836;SDS011;38941;53.254;6.600;2023-05-07T09:33:38;21.95;;;12.77;;
51836;SDS011;38941;53.254;6.600;2023-05-07T09:35:40;22.02;;;12.70;;
51836;SDS011;38941;53.254;6.600;2023-05-07T09:37:41;19.33;;;12.35;;
51836;SDS011;38941;53.254;6.600;2023-05-07T09:39:46;19.90;;;11.88;;
51836;SDS011;38941;53.254;6.600;2023-05-07T09:41:48;24.23;;;12.73;;
51836;SDS011;38941;53.254;6.600;2023-05-07T09:43:54;22.52;;;11.95;;
51836;SDS011;38941;53.254;6.600;2023-05-07T09:45:56;22.50;;;12.20;;
51836;SDS011;38941;53.254;6.600;2023-05-07T09:47:59;19.95;;;12.20;;
51836;SDS011;38941;53.254;6.600;2023-05-07T09:50:01;24.13;;;12.93;;
51836;SDS011;38941;53.254;6.600;2023-05-07T09:52:05;20.45;;;11.45;;
51836;SDS011;38941;53.254;6.600;2023-05-07T09:54:09;20.65;;;11.15;;
51836;SDS011;38941;53.254;6.600;2023-05-07T09:56:10;20.40;;;12.55;;
51836;SDS011;38941;53.254;6.600;2023-05-07T09:58:12;20.42;;;11.90;;
51836;SDS011;38941;53.254;6.600;2023-05-07T10:00:18;20.75;;;11.32;;
51836;SDS011;38941;53.254;6.600;2023-05-07T10:02:19;19.23;;;11.93;;
51836;SDS011;38941;53.254;6.600;2023-05-07T10:04:21;21.13;;;11.52;;
51836;SDS011;38941;53.254;6.600;2023-05-07T10:06:23;17.55;;;11.02;;
51836;SDS011;38941;53.254;6.600;2023-05-07T10:08:25;21.15;;;11.70;;
51836;SDS011;38941;53.254;6.600;2023-05-07T10:10:27;21.65;;;11.85;;
51836;SDS011;38941;53.254;6.600;2023-05-07T10:12:29;18.83;;;12.10;;
51836;SDS011;38941;53.254;6.600;2023-05-07T10:14:37;20.27;;;11.65;;
51836;SDS011;38941;53.254;6.600;2023-05-07T10:16:39;19.98;;;10.80;;
51836;SDS011;38941;53.254;6.600;2023-05-07T10:18:40;20.85;;;11.98;;
51836;SDS011;38941;53.254;6.600;2023-05-07T10:20:42;18.60;;;10.38;;
51836;SDS011;38941;53.254;6.600;2023-05-07T10:22:44;19.75;;;11.88;;
51836;SDS011;38941;53.254;6.600;2023-05-07T10:24:46;20.25;;;11.50;;
51836;SDS011;38941;53.254;6.600;2023-05-07T10:26:50;19.50;;;11.35;;
51836;SDS011;38941;53.254;6.600;2023-05-07T10:28:55;18.98;;;10.50;;
51836;SDS011;38941;53.254;6.600;2023-05-07T10:33:08;18.42;;;10.80;;
51836;SDS011;38941;53.254;6.600;2023-05-07T10:35:11;17.65;;;11.10;;
51836;SDS011;38941;53.254;6.600;2023-05-07T10:37:14;20.45;;;11.35;;
51836;SDS011;38941;53.254;6.600;2023-05-07T10:39:16;18.25;;;10.82;;
51836;SDS011;38941;53.254;6.600;2023-05-07T10:41:17;19.55;;;11.57;;
51836;SDS011;38941;53.254;6.600;2023-05-07T10:43:19;19.00;;;10.68;;
51836;SDS011;38941;53.254;6.600;2023-05-07T10:45:21;19.65;;;11.35;;
51836;SDS011;38941;53.254;6.600;2023-05-07T10:47:22;17.65;;;10.02;;
51836;SDS011;38941;53.254;6.600;2023-05-07T10:49:23;17.30;;;10.27;;
51836;SDS011;38941;53.254;6.600;2023-05-07T10:51:24;16.60;;;11.15;;
51836;SDS011;38941;53.254;6.600;2023-05-07T10:53:26;17.88;;;10.88;;
51836;SDS011;38941;53.254;6.600;2023-05-07T10:55:30;18.40;;;10.65;;
51836;SDS011;38941;53.254;6.600;2023-05-07T10:59:33;17.73;;;10.55;;
51836;SDS011;38941;53.254;6.600;2023-05-07T11:04:26;16.90;;;11.38;;
51836;SDS011;38941;53.254;6.600;2023-05-07T11:06:27;19.63;;;12.05;;
51836;SDS011;38941;53.254;6.600;2023-05-07T11:08:52;16.73;;;10.60;;
51836;SDS011;38941;53.254;6.600;2023-05-07T11:10:52;16.95;;;9.93;;
51836;SDS011;38941;53.254;6.600;2023-05-07T11:12:53;16.35;;;11.10;;
51836;SDS011;38941;53.254;6.600;2023-05-07T11:14:54;14.23;;;9.68;;
51836;SDS011;38941;53.254;6.600;2023-05-07T11:17:01;13.68;;;9.50;;
51836;SDS011;38941;53.254;6.600;2023-05-07T11:19:03;15.93;;;9.65;;
51836;SDS011;38941;53.254;6.600;2023-05-07T11:21:04;13.68;;;8.32;;
51836;SDS011;38941;53.254;6.600;2023-05-07T11:23:06;19.73;;;11.15;;
51836;SDS011;38941;53.254;6.600;2023-05-07T11:25:07;15.05;;;9.07;;
51836;SDS011;38941;53.254;6.600;2023-05-07T11:27:08;15.18;;;9.23;;
51836;SDS011;38941;53.254;6.600;2023-05-07T11:29:10;14.63;;;9.23;;
51836;SDS011;38941;53.254;6.600;2023-05-07T11:31:12;15.32;;;9.70;;
51836;SDS011;38941;53.254;6.600;2023-05-07T11:33:13;15.98;;;9.75;;
51836;SDS011;38941;53.254;6.600;2023-05-07T11:35:17;13.20;;;8.77;;
51836;SDS011;38941;53.254;6.600;2023-05-07T11:37:19;13.88;;;9.05;;
51836;SDS011;38941;53.254;6.600;2023-05-07T11:39:27;16.42;;;9.25;;
51836;SDS011;38941;53.254;6.600;2023-05-07T11:41:35;14.48;;;9.50;;
51836;SDS011;38941;53.254;6.600;2023-05-07T11:43:37;14.23;;;8.17;;
51836;SDS011;38941;53.254;6.600;2023-05-07T11:45:41;13.93;;;9.05;;
51836;SDS011;38941;53.254;6.600;2023-05-07T11:47:42;14.68;;;8.88;;
51836;SDS011;38941;53.254;6.600;2023-05-07T11:49:47;12.40;;;8.43;;
51836;SDS011;38941;53.254;6.600;2023-05-07T11:51:48;15.82;;;9.60;;
51836;SDS011;38941;53.254;6.600;2023-05-07T11:53:50;14.02;;;8.93;;
51836;SDS011;38941;53.254;6.600;2023-05-07T11:55:57;12.52;;;8.63;;
51836;SDS011;38941;53.254;6.600;2023-05-07T11:57:58;14.85;;;8.32;;
51836;SDS011;38941;53.254;6.600;2023-05-07T11:59:59;12.73;;;8.48;;
51836;SDS011;38941;53.254;6.600;2023-05-07T12:02:05;13.73;;;8.65;;